Time;durP1;ratioP1;P1;durP2;ratioP2;P2;SDS_P1;SDS_P2;PMS_P1;PMS_P2;Temp;Humidity;BMP_temperature;BMP_pressure;BME280_temperature;BME280_humidity;BME280_pressure;Samples;Min_cycle;Max_cycle;Signal;HPM_P1;HPM_P2
2023/12/16 00:00:20;;;;;;;16.30;15.40;;;7.30;99.90;;;;;;5024294;28;20513;-78
2023/12/16 00:02:48;;;;;;;17.03;16.13;;;7.30;99.90;;;;;;5026504;28;20476;-78
2023/12/16 00:05:16;;;;;;;16.70;15.77;;;7.40;99.90;;;;;;5030544;28;20453;-78
2023/12/16 00:07:46;;;;;;;16.37;15.57;;;7.30;99.90;;;;;;5029636;28;20444;-77
2023/12/16 00:10:16;;;;;;;15.27;14.50;;;7.30;99.90;;;;;;5029923;28;20467;-77
2023/12/16 00:12:45;;;;;;;14.87;14.27;;;7.30;1.00;;;;;;5030852;28;20539;-78
2023/12/16 00:15:14;;;;;;;14.87;14.23;;;7.30;1.00;;;;;;5027026;28;21038;-78
2023/12/16 00:17:42;;;;;;;15.93;15.23;;;7.30;1.00;;;;;;5031786;28;20464;-78
2023/12/16 00:20:11;;;;;;;16.70;15.80;;;7.20;1.00;;;;;;5011798;28;20449;-79
2023/12/16 00:22:39;;;;;;;16.10;15.40;;;7.10;99.90;;;;;;5022834;28;20553;-78
2023/12/16 00:25:09;;;;;;;15.73;15.03;;;7.10;1.00;;;;;;5024948;28;20488;-78
2023/12/16 00:27:38;;;;;;;16.00;15.20;;;7.20;1.00;;;;;;5029503;28;20440;-80
2023/12/16 00:30:08;;;;;;;15.53;14.80;;;7.20;1.00;;;;;;5031423;28;21011;-78
2023/12/16 00:32:39;;;;;;;15.70;14.90;;;7.20;1.00;;;;;;5028704;28;20467;-79
2023/12/16 00:35:08;;;;;;;16.73;15.90;;;7.20;99.90;;;;;;5022767;28;20500;-79
2023/12/16 00:37:37;;;;;;;15.97;15.27;;;7.20;99.90;;;;;;5028399;28;20472;-77
2023/12/16 00:40:07;;;;;;;16.73;15.63;;;7.10;99.90;;;;;;5026527;28;20471;-78
2023/12/16 00:42:37;;;;;;;15.33;14.63;;;7.10;99.90;;;;;;5029464;28;20498;-79
2023/12/16 00:45:07;;;;;;;14.17;13.60;;;7.10;1.00;;;;;;5030011;28;20440;-78
2023/12/16 00:47:35;;;;;;;14.73;14.03;;;7.10;1.00;;;;;;5031309;28;20879;-79
2023/12/16 00:50:05;;;;;;;13.37;12.57;;;7.10;99.90;;;;;;5026743;28;20448;-78
2023/12/16 00:52:34;;;;;;;14.47;13.77;;;7.10;99.90;;;;;;5030459;28;20767;-78
2023/12/16 00:55:03;;;;;;;13.90;13.20;;;7.00;1.00;;;;;;5028276;28;20485;-78
2023/12/16 00:57:31;;;;;;;15.03;14.33;;;7.10;1.00;;;;;;5029548;28;21040;-79
2023/12/16 01:00:00;;;;;;;14.20;13.60;;;7.00;99.90;;;;;;5029099;28;21015;-78
2023/12/16 01:02:28;;;;;;;13.20;12.70;;;7.00;1.00;;;;;;5028262;28;20472;-78
2023/12/16 01:04:57;;;;;;;14.50;13.77;;;7.00;1.00;;;;;;5033208;28;20961;-78
2023/12/16 01:07:25;;;;;;;14.30;13.60;;;7.00;1.00;;;;;;5034685;28;20461;-78
2023/12/16 01:09:54;;;;;;;13.90;13.20;;;7.00;1.00;;;;;;5033009;28;20906;-77
2023/12/16 01:12:22;;;;;;;14.50;13.90;;;7.10;1.00;;;;;;5033155;28;20938;-77
2023/12/16 01:14:51;;;;;;;13.50;13.00;;;7.10;99.10;;;;;;5033826;28;20478;-77
2023/12/16 01:17:20;;;;;;;14.07;13.47;;;7.00;64.60;;;;;;5030999;28;20473;-78
2023/12/16 01:19:49;;;;;;;15.50;14.70;;;7.00;99.90;;;;;;5032539;28;20484;-78
2023/12/16 01:22:19;;;;;;;15.70;14.87;;;6.90;99.90;;;;;;5032334;28;20484;-78
2023/12/16 01:24:48;;;;;;;20.20;18.50;;;6.90;1.00;;;;;;5034579;28;20451;-78
2023/12/16 01:27:16;;;;;;;22.70;20.60;;;7.00;1.00;;;;;;5025682;28;20476;-79
2023/12/16 01:29:44;;;;;;;25.60;23.10;;;6.90;1.00;;;;;;5029867;28;20479;-78
2023/12/16 01:32:12;;;;;;;26.67;24.00;;;7.00;1.00;;;;;;5028508;28;20485;-78
2023/12/16 01:34:42;;;;;;;28.43;25.63;;;7.00;99.90;;;;;;5033730;28;20985;-78
2023/12/16 01:37:10;;;;;;;27.50;24.77;;;6.90;99.90;;;;;;5027696;28;20452;-78
2023/12/16 01:39:38;;;;;;;27.53;24.63;;;6.90;1.00;;;;;;5032092;28;20463;-79
2023/12/16 01:42:06;;;;;;;25.60;23.40;;;6.90;99.90;;;;;;5032397;28;20477;-79
2023/12/16 01:44:34;;;;;;;23.47;21.17;;;6.90;99.90;;;;;;5028838;28;20452;-78
2023/12/16 01:47:03;;;;;;;24.90;22.47;;;6.90;99.90;;;;;;5030697;28;20451;-77
2023/12/16 01:49:32;;;;;;;22.27;20.33;;;6.80;99.90;;;;;;5031935;28;20452;-78
2023/12/16 01:52:02;;;;;;;19.23;17.83;;;6.70;1.00;;;;;;5031544;28;20522;-78
2023/12/16 01:54:30;;;;;;;16.60;15.40;;;6.70;1.00;;;;;;5030071;28;20480;-79
2023/12/16 01:57:00;;;;;;;15.17;14.27;;;6.70;21.30;;;;;;5031826;28;20467;-79
2023/12/16 01:59:28;;;;;;;15.37;14.37;;;6.60;1.00;;;;;;5033246;28;20457;-78
2023/12/16 02:01:56;;;;;;;14.97;14.13;;;6.60;1.00;;;;;;5029892;28;20477;-80
2023/12/16 02:04:26;;;;;;;15.10;14.37;;;6.50;1.00;;;;;;5033811;28;20445;-80
2023/12/16 02:06:54;;;;;;;15.23;14.50;;;6.60;8.40;;;;;;5032270;28;20457;-79
2023/12/16 02:09:24;;;;;;;14.67;14.00;;;6.60;1.00;;;;;;5032943;28;20506;-78
2023/12/16 02:11:52;;;;;;;15.70;14.80;;;6.60;1.00;;;;;;5034025;28;20487;-78
2023/12/16 02:14:21;;;;;;;15.20;14.30;;;6.60;1.00;;;;;;5030281;28;20469;-78
2023/12/16 02:16:49;;;;;;;15.23;14.43;;;6.60;99.90;;;;;;5033702;28;20579;-78
2023/12/16 02:19:24;;;;;;;15.50;14.70;;;6.60;99.90;;;;;;5031920;28;20576;-77
2023/12/16 02:21:53;;;;;;;15.10;14.30;;;6.60;99.90;;;;;;5029510;28;20480;-78
2023/12/16 02:24:23;;;;;;;16.13;15.33;;;6.50;1.00;;;;;;5032733;28;20463;-78
2023/12/16 02:26:51;;;;;;;16.00;15.00;;;6.50;99.90;;;;;;5031890;28;20453;-77
2023/12/16 02:29:19;;;;;;;15.33;14.50;;;6.50;99.90;;;;;;5029756;28;20448;-78
2023/12/16 02:31:47;;;;;;;15.67;14.77;;;6.60;1.00;;;;;;5033969;28;20503;-78
2023/12/16 02:34:15;;;;;;;16.33;15.43;;;6.60;99.90;;;;;;5029876;28;20771;-79
2023/12/16 02:36:44;;;;;;;15.90;15.03;;;6.60;1.00;;;;;;5031710;28;20487;-78
2023/12/16 02:39:12;;;;;;;15.70;14.80;;;6.70;99.90;;;;;;5033463;28;20460;-78
2023/12/16 02:41:41;;;;;;;15.77;14.93;;;6.60;99.90;;;;;;5032363;28;20488;-78
2023/12/16 02:44:09;;;;;;;14.40;13.80;;;6.60;1.00;;;;;;5031613;28;21055;-79
2023/12/16 02:46:37;;;;;;;15.93;14.73;;;6.60;23.60;;;;;;5032817;28;20468;-78
2023/12/16 02:49:06;;;;;;;16.80;15.80;;;6.70;1.00;;;;;;5025713;28;20456;-78
2023/12/16 02:51:34;;;;;;;15.60;14.73;;;6.70;1.00;;;;;;5030076;28;20483;-78
2023/12/16 02:54:02;;;;;;;15.13;14.43;;;6.70;1.00;;;;;;5026629;28;20500;-77
2023/12/16 02:56:30;;;;;;;16.60;15.67;;;6.70;99.90;;;;;;5030457;28;21518;-78
2023/12/16 02:59:00;;;;;;;15.80;15.10;;;6.70;99.90;;;;;;5023000;28;20471;-79
2023/12/16 03:01:28;;;;;;;15.80;14.90;;;6.70;1.00;;;;;;5033137;28;20473;-78
2023/12/16 03:03:56;;;;;;;15.97;15.00;;;6.70;99.90;;;;;;5029074;28;20479;-78
2023/12/16 03:06:24;;;;;;;16.20;15.40;;;6.70;99.90;;;;;;5031471;28;20511;-78
2023/12/16 03:08:52;;;;;;;15.63;14.83;;;6.70;1.00;;;;;;5029037;28;21255;-78
2023/12/16 03:11:20;;;;;;;16.50;15.60;;;6.80;1.00;;;;;;5031678;28;20479;-79
2023/12/16 03:13:49;;;;;;;16.40;15.43;;;6.80;1.00;;;;;;5028197;28;20452;-78
2023/12/16 03:16:19;;;;;;;16.57;15.67;;;6.70;1.00;;;;;;5029467;28;20476;-78
2023/12/16 03:18:47;;;;;;;15.73;14.83;;;6.80;1.00;;;;;;5030605;28;20460;-78
2023/12/16 03:21:15;;;;;;;15.70;14.90;;;6.80;1.00;;;;;;5033441;28;21023;-78
2023/12/16 03:23:44;;;;;;;15.27;14.57;;;6.80;1.00;;;;;;5027587;28;21238;-78
2023/12/16 03:26:12;;;;;;;15.23;14.40;;;6.70;99.90;;;;;;5030200;28;20480;-79
2023/12/16 03:28:40;;;;;;;15.00;14.33;;;6.70;99.90;;;;;;5032493;28;20532;-79
2023/12/16 03:31:08;;;;;;;15.60;14.90;;;6.70;99.90;;;;;;5028683;28;20477;-78
2023/12/16 03:33:38;;;;;;;15.87;14.87;;;6.70;99.90;;;;;;5031735;28;20875;-77
2023/12/16 03:36:09;;;;;;;15.80;14.90;;;6.80;99.90;;;;;;5030277;28;21041;-78
2023/12/16 03:38:37;;;;;;;15.03;14.37;;;6.80;99.90;;;;;;5029622;28;20499;-78
2023/12/16 03:41:05;;;;;;;15.20;14.60;;;6.80;99.90;;;;;;5029782;28;20476;-78
2023/12/16 03:43:34;;;;;;;15.33;14.50;;;6.70;99.90;;;;;;5030486;28;20558;-78
2023/12/16 03:46:02;;;;;;;14.73;14.10;;;6.70;99.90;;;;;;5030061;28;20565;-77
2023/12/16 03:48:30;;;;;;;14.40;13.73;;;6.70;1.00;;;;;;5031364;28;20460;-77
2023/12/16 03:51:00;;;;;;;13.53;12.93;;;6.70;1.00;;;;;;5027428;28;20452;-80
2023/12/16 03:53:28;;;;;;;15.43;14.50;;;6.70;25.00;;;;;;5028521;28;20957;-79
2023/12/16 03:55:56;;;;;;;13.60;13.03;;;6.70;1.00;;;;;;5029781;28;20988;-79
2023/12/16 03:58:25;;;;;;;15.00;14.40;;;6.70;1.00;;;;;;5028721;28;20484;-79
2023/12/16 04:00:53;;;;;;;13.47;12.87;;;6.70;1.00;;;;;;5028654;28;21345;-79
2023/12/16 04:03:22;;;;;;;15.40;14.60;;;6.70;99.90;;;;;;5016638;28;20545;-78
2023/12/16 04:05:50;;;;;;;14.27;13.67;;;6.70;99.90;;;;;;5024877;28;20460;-78
2023/12/16 04:08:20;;;;;;;14.27;13.63;;;6.70;93.90;;;;;;5031842;28;20811;-79
2023/12/16 04:10:48;;;;;;;14.07;13.50;;;6.70;1.00;;;;;;5021146;28;20476;-79
2023/12/16 04:13:16;;;;;;;14.23;13.63;;;6.70;1.00;;;;;;5028258;28;20476;-77
2023/12/16 04:15:51;;;;;;;14.17;13.60;;;6.70;1.00;;;;;;5028804;28;20469;-77
2023/12/16 04:18:19;;;;;;;13.70;13.10;;;6.70;32.00;;;;;;5023759;28;20538;-78
2023/12/16 04:20:48;;;;;;;14.40;13.80;;;6.70;1.00;;;;;;5028961;28;20479;-79
2023/12/16 04:23:16;;;;;;;15.43;14.63;;;6.70;1.00;;;;;;5027686;28;20539;-78
2023/12/16 04:25:46;;;;;;;15.40;14.60;;;6.70;1.00;;;;;;5021882;28;20532;-78
2023/12/16 04:28:14;;;;;;;15.60;14.90;;;6.70;99.90;;;;;;5026884;28;22261;-79
2023/12/16 04:30:42;;;;;;;15.07;14.37;;;6.70;1.70;;;;;;5030511;28;20458;-78
2023/12/16 04:33:10;;;;;;;15.77;14.97;;;6.70;39.00;;;;;;5028953;28;20982;-78
2023/12/16 04:35:39;;;;;;;15.97;15.10;;;6.70;47.60;;;;;;5029205;28;20554;-78
2023/12/16 04:38:07;;;;;;;15.03;14.43;;;6.70;1.00;;;;;;5026600;28;20530;-77
2023/12/16 04:40:35;;;;;;;15.77;14.93;;;6.70;25.80;;;;;;5027457;28;20548;-78
2023/12/16 04:43:05;;;;;;;15.23;14.50;;;6.70;1.00;;;;;;5029315;28;20480;-79
2023/12/16 04:45:35;;;;;;;14.47;13.90;;;6.60;1.00;;;;;;5030145;28;20441;-78
2023/12/16 04:48:03;;;;;;;15.20;14.50;;;6.70;1.00;;;;;;5027060;28;20445;-78
2023/12/16 04:50:32;;;;;;;14.80;14.20;;;6.60;1.00;;;;;;5029871;28;20464;-80
2023/12/16 04:53:00;;;;;;;14.10;13.60;;;6.60;1.00;;;;;;5032650;28;20471;-79
2023/12/16 04:55:28;;;;;;;14.60;13.77;;;6.60;1.00;;;;;;5028280;28;20472;-79
2023/12/16 04:57:56;;;;;;;14.87;13.90;;;6.60;1.00;;;;;;5028173;28;20459;-78
2023/12/16 05:00:26;;;;;;;14.30;13.70;;;6.70;1.00;;;;;;5025062;28;21743;-78
2023/12/16 05:02:54;;;;;;;14.90;14.27;;;6.60;1.00;;;;;;5026425;28;20480;-79
2023/12/16 05:05:22;;;;;;;15.20;14.13;;;6.60;99.90;;;;;;5027458;28;20968;-80
2023/12/16 05:07:50;;;;;;;14.27;13.57;;;6.60;99.90;;;;;;5028419;28;20461;-79
2023/12/16 05:10:19;;;;;;;14.43;13.83;;;6.60;99.90;;;;;;5030471;28;20468;-79
2023/12/16 05:12:47;;;;;;;14.10;13.40;;;6.50;99.90;;;;;;5030404;28;20482;-80
2023/12/16 05:15:15;;;;;;;14.33;13.53;;;6.50;73.10;;;;;;5029002;28;21080;-79
2023/12/16 05:17:44;;;;;;;13.60;13.00;;;6.50;99.90;;;;;;5031728;28;20456;-80
2023/12/16 05:20:12;;;;;;;13.73;13.10;;;6.50;88.20;;;;;;5029070;28;20468;-81
2023/12/16 05:22:40;;;;;;;13.63;13.13;;;6.50;99.90;;;;;;5025595;28;20468;-80
2023/12/16 05:25:09;;;;;;;13.27;12.77;;;6.40;19.10;;;;;;5027392;28;21397;-80
2023/12/16 05:27:37;;;;;;;14.03;13.43;;;6.40;97.90;;;;;;5027417;28;20449;-80
2023/12/16 05:30:06;;;;;;;14.53;13.90;;;6.50;99.90;;;;;;5022849;28;20467;-80
2023/12/16 05:32:37;;;;;;;14.10;13.50;;;6.40;99.90;;;;;;5027145;28;20457;-79
2023/12/16 05:35:08;;;;;;;14.73;14.00;;;6.50;1.00;;;;;;5022298;28;20461;-80
2023/12/16 05:37:36;;;;;;;14.83;14.03;;;6.50;99.90;;;;;;5019557;28;20627;-80
2023/12/16 05:40:05;;;;;;;14.50;13.80;;;6.50;36.30;;;;;;5032988;28;20456;-79
2023/12/16 05:42:33;;;;;;;13.70;13.10;;;6.40;99.90;;;;;;5033577;28;20486;-79
2023/12/16 05:45:02;;;;;;;13.40;12.90;;;6.50;99.90;;;;;;5030821;28;20487;-80
2023/12/16 05:47:30;;;;;;;13.33;12.83;;;6.40;99.90;;;;;;5030281;28;20544;-80
2023/12/16 05:49:58;;;;;;;14.93;14.23;;;6.40;99.90;;;;;;5033859;28;20467;-80
2023/12/16 05:52:28;;;;;;;15.10;14.30;;;6.50;99.90;;;;;;5025596;28;20504;-80
2023/12/16 05:54:56;;;;;;;14.30;13.60;;;6.40;22.40;;;;;;5028912;28;20456;-78
2023/12/16 05:57:25;;;;;;;14.60;13.90;;;6.40;1.00;;;;;;5032639;28;20472;-78
2023/12/16 05:59:54;;;;;;;14.90;14.30;;;6.30;1.00;;;;;;5034110;28;20518;-78
2023/12/16 06:02:22;;;;;;;14.63;13.93;;;6.40;7.10;;;;;;5031685;28;20480;-78
2023/12/16 06:04:52;;;;;;;13.80;13.30;;;6.40;99.90;;;;;;5031845;28;21057;-78
2023/12/16 06:07:20;;;;;;;14.07;13.43;;;6.40;25.60;;;;;;5031479;28;20449;-77
2023/12/16 06:09:50;;;;;;;14.20;13.60;;;6.40;31.00;;;;;;5033445;28;20996;-79
2023/12/16 06:12:18;;;;;;;14.20;13.53;;;6.40;1.00;;;;;;5031477;28;20479;-79
2023/12/16 06:14:46;;;;;;;13.60;12.90;;;6.50;1.00;;;;;;5029586;28;20472;-78
2023/12/16 06:17:15;;;;;;;13.60;13.00;;;6.50;99.90;;;;;;5033170;28;20575;-78
2023/12/16 06:19:43;;;;;;;14.70;13.90;;;6.50;99.90;;;;;;5033209;28;20448;-77
2023/12/16 06:22:12;;;;;;;14.10;13.50;;;6.40;99.90;;;;;;5034623;28;20542;-77
2023/12/16 06:24:40;;;;;;;13.60;12.93;;;6.40;99.90;;;;;;5032816;28;21001;-78
2023/12/16 06:27:10;;;;;;;14.33;13.53;;;6.40;1.00;;;;;;5032529;28;20449;-77
2023/12/16 06:29:40;;;;;;;14.73;13.90;;;6.40;1.00;;;;;;5031959;28;20466;-77
2023/12/16 06:32:09;;;;;;;14.40;13.70;;;6.50;1.00;;;;;;5032169;28;20492;-77
2023/12/16 06:34:37;;;;;;;14.67;13.90;;;6.40;1.00;;;;;;5032720;28;20445;-78
2023/12/16 06:37:06;;;;;;;15.00;14.30;;;6.40;1.00;;;;;;5028953;28;20483;-78
2023/12/16 06:39:34;;;;;;;15.07;14.27;;;6.40;1.00;;;;;;5032922;28;21271;-77
2023/12/16 06:42:02;;;;;;;13.67;13.07;;;6.30;1.00;;;;;;5033137;28;20480;-77
2023/12/16 06:44:32;;;;;;;14.90;14.10;;;6.30;1.00;;;;;;5033831;28;20540;-78
2023/12/16 06:47:00;;;;;;;13.80;13.20;;;6.30;1.00;;;;;;5032579;28;20507;-78
2023/12/16 06:49:29;;;;;;;13.73;13.03;;;6.20;1.00;;;;;;5029541;28;20569;-77
2023/12/16 06:51:57;;;;;;;13.87;13.23;;;6.20;1.00;;;;;;5032771;28;20481;-77
2023/12/16 06:54:25;;;;;;;12.93;12.33;;;6.20;3.40;;;;;;5026651;28;20477;-79
2023/12/16 06:56:53;;;;;;;13.23;12.63;;;6.20;1.00;;;;;;5030077;28;20493;-78
2023/12/16 06:59:21;;;;;;;13.77;13.07;;;6.20;1.00;;;;;;5026703;28;20509;-77
2023/12/16 07:01:51;;;;;;;13.73;13.13;;;6.30;1.00;;;;;;5031990;28;20236;-77
2023/12/16 07:04:19;;;;;;;13.83;13.13;;;6.20;99.90;;;;;;5030534;28;20453;-78
2023/12/16 07:06:47;;;;;;;13.00;12.50;;;6.10;99.90;;;;;;5032552;28;21156;-76
2023/12/16 07:09:16;;;;;;;13.60;12.90;;;6.20;1.00;;;;;;5031267;28;20529;-85
2023/12/16 07:11:44;;;;;;;12.30;11.87;;;6.10;1.00;;;;;;5046483;28;20946;-84
2023/12/16 07:14:12;;;;;;;13.93;13.13;;;6.20;1.00;;;;;;5042834;28;20832;-84
2023/12/16 07:16:41;;;;;;;12.43;11.93;;;6.20;1.00;;;;;;5032010;28;20568;-77
2023/12/16 07:19:10;;;;;;;13.10;12.50;;;6.10;1.00;;;;;;5030962;28;20912;-78
2023/12/16 07:21:42;;;;;;;13.80;13.00;;;6.10;1.00;;;;;;5027922;28;20487;-78
2023/12/16 07:24:10;;;;;;;13.17;12.47;;;6.10;1.00;;;;;;5033554;28;20458;-78
2023/12/16 07:26:38;;;;;;;13.20;12.60;;;6.10;99.90;;;;;;5031298;28;20815;-77
2023/12/16 07:29:06;;;;;;;12.43;11.80;;;6.10;1.00;;;;;;5028455;28;20491;-77
2023/12/16 07:31:34;;;;;;;13.20;12.60;;;6.10;1.00;;;;;;5027140;28;20531;-76
2023/12/16 07:34:03;;;;;;;14.40;13.50;;;6.00;1.00;;;;;;5027873;28;20252;-77
2023/12/16 07:36:33;;;;;;;13.80;13.00;;;6.00;1.00;;;;;;5028466;28;20460;-77
2023/12/16 07:39:01;;;;;;;12.83;12.10;;;6.00;1.00;;;;;;5027361;28;20486;-78
2023/12/16 07:41:29;;;;;;;13.50;13.00;;;6.00;1.00;;;;;;5030544;28;20480;-76
2023/12/16 07:43:57;;;;;;;12.63;11.93;;;5.90;1.00;;;;;;5027856;28;20444;-78
2023/12/16 07:46:26;;;;;;;12.20;11.70;;;5.90;1.00;;;;;;5030940;28;20468;-78
2023/12/16 07:48:54;;;;;;;13.10;12.40;;;5.80;1.00;;;;;;5029826;28;20829;-79
2023/12/16 07:51:25;;;;;;;13.40;12.70;;;5.70;1.00;;;;;;5032528;28;20824;-80
2023/12/16 07:53:55;;;;;;;12.73;12.13;;;5.80;36.60;;;;;;5028339;28;20461;-80
2023/12/16 07:56:27;;;;;;;13.27;12.67;;;5.80;99.90;;;;;;5026704;28;20467;-80
2023/12/16 07:58:57;;;;;;;12.10;11.60;;;5.90;99.90;;;;;;5027411;28;20542;-80
2023/12/16 08:01:25;;;;;;;13.27;12.60;;;6.00;1.00;;;;;;5025849;28;20480;-80
2023/12/16 08:03:53;;;;;;;12.30;11.80;;;5.90;99.90;;;;;;5016898;28;20559;-79
2023/12/16 08:06:22;;;;;;;13.20;12.60;;;6.00;1.00;;;;;;5025235;28;20513;-77
2023/12/16 08:08:50;;;;;;;13.93;13.33;;;6.10;99.90;;;;;;5024962;28;21151;-76
2023/12/16 08:11:19;;;;;;;14.30;13.57;;;6.20;1.00;;;;;;5024458;28;20482;-77
2023/12/16 08:13:48;;;;;;;14.13;13.53;;;6.20;1.00;;;;;;5025684;28;21169;-77
2023/12/16 08:16:16;;;;;;;14.20;13.53;;;6.30;99.90;;;;;;5040869;28;20461;-78
2023/12/16 08:18:44;;;;;;;13.67;13.07;;;6.30;99.90;;;;;;5028321;28;20542;-77
2023/12/16 08:21:12;;;;;;;15.43;14.60;;;6.40;99.90;;;;;;5026981;28;20485;-77
2023/12/16 08:23:40;;;;;;;14.40;13.73;;;6.40;99.90;;;;;;5029256;28;20463;-77
2023/12/16 08:26:10;;;;;;;13.63;13.10;;;6.40;99.90;;;;;;5028979;28;20457;-77
2023/12/16 08:28:41;;;;;;;13.80;13.20;;;6.40;99.90;;;;;;5026606;28;20543;-77
2023/12/16 08:31:09;;;;;;;13.90;13.20;;;6.40;91.30;;;;;;5031868;28;20571;-76
2023/12/16 08:33:38;;;;;;;15.47;14.63;;;6.50;99.90;;;;;;5026694;28;20511;-77
2023/12/16 08:36:07;;;;;;;14.50;13.80;;;6.40;99.90;;;;;;5029725;28;20962;-76
2023/12/16 08:38:36;;;;;;;15.20;13.80;;;6.40;99.90;;;;;;5025959;28;20537;-78
2023/12/16 08:41:07;;;;;;;13.60;12.90;;;6.50;99.90;;;;;;5024197;28;20463;-77
2023/12/16 08:43:35;;;;;;;12.07;11.60;;;6.40;45.60;;;;;;5027360;28;20563;-77
2023/12/16 08:46:06;;;;;;;12.43;11.73;;;6.40;99.90;;;;;;5016047;28;20927;-77
2023/12/16 08:48:35;;;;;;;12.67;12.10;;;6.40;89.90;;;;;;5022007;28;20471;-77
2023/12/16 08:51:04;;;;;;;11.93;11.43;;;6.40;99.90;;;;;;5029392;28;20448;-78
2023/12/16 08:53:32;;;;;;;11.57;11.07;;;6.40;1.00;;;;;;5026540;28;20459;-77
2023/12/16 08:56:00;;;;;;;12.57;12.07;;;6.30;1.00;;;;;;5031807;28;20448;-79
2023/12/16 08:58:28;;;;;;;11.80;11.37;;;6.40;1.00;;;;;;5028792;28;20475;-77
2023/12/16 09:00:57;;;;;;;13.53;12.83;;;6.40;1.00;;;;;;5027226;28;20961;-79
2023/12/16 09:03:27;;;;;;;12.80;12.30;;;6.50;1.00;;;;;;5029848;28;20449;-78
2023/12/16 09:05:55;;;;;;;13.10;12.40;;;6.40;1.00;;;;;;5028857;28;20440;-78
2023/12/16 09:08:23;;;;;;;13.37;12.77;;;6.40;1.00;;;;;;5028105;28;21039;-78
2023/12/16 09:10:51;;;;;;;12.67;11.87;;;6.50;24.40;;;;;;5029075;28;20466;-78
2023/12/16 09:13:19;;;;;;;12.03;11.50;;;6.50;1.00;;;;;;5022022;28;20453;-78
2023/12/16 09:15:48;;;;;;;12.40;11.80;;;6.60;1.00;;;;;;5022697;28;20455;-80
2023/12/16 09:18:16;;;;;;;11.60;11.20;;;6.60;1.00;;;;;;5013518;28;20529;-79
2023/12/16 09:20:46;;;;;;;12.80;12.30;;;6.60;1.00;;;;;;5022534;28;21050;-78
2023/12/16 09:23:14;;;;;;;12.30;11.70;;;6.50;1.00;;;;;;5028116;28;20201;-78
2023/12/16 09:25:42;;;;;;;12.50;11.90;;;6.60;1.00;;;;;;5032764;28;20528;-78
2023/12/16 09:28:11;;;;;;;12.73;12.23;;;6.70;1.00;;;;;;5032032;28;20455;-78
2023/12/16 09:30:39;;;;;;;12.53;12.03;;;6.70;1.00;;;;;;5029905;28;20454;-77
2023/12/16 09:33:07;;;;;;;12.47;11.97;;;6.70;1.00;;;;;;5030467;28;20475;-79
2023/12/16 09:35:36;;;;;;;12.23;11.73;;;6.80;1.00;;;;;;5033369;28;20464;-78
2023/12/16 09:38:05;;;;;;;12.30;11.90;;;6.80;1.00;;;;;;5029880;28;20476;-78
2023/12/16 09:40:34;;;;;;;12.63;12.13;;;6.80;1.00;;;;;;5034292;28;20945;-78
2023/12/16 09:43:14;;;;;;;12.00;11.50;;;6.80;1.00;;;;;;5031198;28;20875;-78
2023/12/16 09:45:46;;;;;;;13.00;12.30;;;6.90;1.00;;;;;;5029577;28;20532;-77
2023/12/16 09:48:17;;;;;;;13.00;12.20;;;6.90;1.00;;;;;;5028833;28;20987;-77
2023/12/16 09:50:46;;;;;;;13.23;12.53;;;6.90;1.00;;;;;;5031654;28;20820;-77
2023/12/16 09:53:16;;;;;;;15.40;14.30;;;6.90;1.00;;;;;;5031035;28;20481;-78
2023/12/16 09:55:45;;;;;;;13.37;12.77;;;6.90;1.00;;;;;;5031182;28;20548;-76
2023/12/16 09:58:16;;;;;;;12.70;12.10;;;6.90;1.00;;;;;;5031151;28;21036;-78
2023/12/16 10:00:47;;;;;;;13.60;12.90;;;6.90;1.00;;;;;;5030761;28;20457;-77
2023/12/16 10:03:17;;;;;;;13.02;12.43;;;6.90;1.00;;;;;;5025224;28;20441;-77
2023/12/16 10:05:47;;;;;;;12.80;12.20;;;6.80;1.00;;;;;;5030534;28;20284;-78
2023/12/16 10:08:17;;;;;;;12.40;11.90;;;7.00;99.90;;;;;;5031021;28;20452;-78
2023/12/16 10:10:45;;;;;;;13.03;12.43;;;7.00;99.90;;;;;;5026438;28;20555;-76
2023/12/16 10:13:21;;;;;;;12.60;12.10;;;7.10;99.90;;;;;;5026591;28;20457;-78
2023/12/16 10:15:50;;;;;;;14.33;13.40;;;7.00;99.90;;;;;;5029976;28;20457;-78
2023/12/16 10:18:18;;;;;;;12.60;12.00;;;7.10;99.90;;;;;;5024582;28;21014;-77
2023/12/16 10:20:47;;;;;;;12.30;11.80;;;7.10;1.00;;;;;;5036592;28;20452;-75
2023/12/16 10:23:18;;;;;;;13.30;12.50;;;7.20;99.90;;;;;;5032980;28;20443;-77
2023/12/16 10:25:47;;;;;;;13.73;13.10;;;7.20;99.90;;;;;;5028953;28;20458;-76
2023/12/16 10:28:15;;;;;;;13.27;12.57;;;7.20;99.90;;;;;;5032410;28;20461;-76
2023/12/16 10:30:43;;;;;;;12.80;12.30;;;7.30;99.90;;;;;;5026409;28;20465;-76
2023/12/16 10:33:13;;;;;;;12.97;12.47;;;7.30;99.90;;;;;;5033235;28;20465;-77
2023/12/16 10:35:43;;;;;;;12.70;12.10;;;7.30;99.90;;;;;;5033405;28;21081;-77
2023/12/16 10:38:12;;;;;;;13.63;13.10;;;7.30;99.90;;;;;;5029419;28;20531;-78
2023/12/16 10:40:42;;;;;;;12.30;11.70;;;7.30;99.90;;;;;;5031947;28;20492;-76
2023/12/16 10:43:11;;;;;;;13.40;12.90;;;7.40;99.90;;;;;;5031757;28;20467;-78
2023/12/16 10:45:40;;;;;;;12.60;12.20;;;7.40;99.90;;;;;;5032820;28;21042;-77
2023/12/16 10:48:11;;;;;;;12.90;12.40;;;7.40;99.90;;;;;;5023442;28;20455;-77
2023/12/16 10:50:44;;;;;;;13.23;12.63;;;7.40;99.90;;;;;;5029666;28;20464;-76
2023/12/16 10:53:21;;;;;;;12.97;12.37;;;7.50;99.90;;;;;;5030602;28;20485;-76
2023/12/16 10:55:55;;;;;;;13.57;12.97;;;7.50;99.90;;;;;;5018747;28;20464;-77
2023/12/16 10:58:26;;;;;;;12.77;12.17;;;7.60;99.90;;;;;;5031521;28;20453;-78
2023/12/16 11:01:01;;;;;;;13.20;12.60;;;7.60;99.90;;;;;;5031744;28;20465;-76
2023/12/16 11:03:35;;;;;;;12.73;12.20;;;7.70;99.90;;;;;;5032254;28;21036;-77
2023/12/16 11:06:12;;;;;;;13.17;12.50;;;7.80;99.90;;;;;;5032637;28;20458;-75
2023/12/16 11:08:41;;;;;;;13.80;13.10;;;7.90;99.90;;;;;;5027736;28;20454;-77
2023/12/16 11:11:11;;;;;;;13.03;12.53;;;7.90;99.90;;;;;;5024531;28;20221;-77
2023/12/16 11:13:40;;;;;;;13.00;12.40;;;8.00;99.90;;;;;;5027410;28;20483;-77
2023/12/16 11:16:16;;;;;;;15.27;14.40;;;8.10;99.90;;;;;;5017232;28;20461;-77
2023/12/16 11:18:48;;;;;;;13.90;13.10;;;8.10;99.90;;;;;;5028977;28;20482;-77
2023/12/16 11:21:22;;;;;;;14.80;13.80;;;8.20;96.00;;;;;;5032955;28;20473;-78
2023/12/16 11:23:51;;;;;;;13.93;13.13;;;8.20;57.80;;;;;;5020787;28;20506;-76
2023/12/16 11:26:22;;;;;;;14.17;13.47;;;8.10;91.80;;;;;;5028913;28;20453;-77
2023/12/16 11:28:54;;;;;;;13.87;13.20;;;8.20;99.70;;;;;;5030229;28;21000;-78
2023/12/16 11:31:22;;;;;;;13.13;12.53;;;8.20;99.90;;;;;;5026829;28;20503;-78
2023/12/16 11:33:50;;;;;;;14.03;13.10;;;8.20;75.70;;;;;;5029646;28;20453;-77
2023/12/16 11:36:38;;;;;;;13.13;12.43;;;8.30;47.00;;;;;;5024816;28;20456;-77
2023/12/16 11:39:37;;;;;;;13.10;12.57;;;8.30;1.00;;;;;;5027941;28;20469;-77
2023/12/16 11:42:08;;;;;;;13.90;13.10;;;8.40;1.00;;;;;;5029171;28;20460;-78
2023/12/16 11:44:50;;;;;;;14.00;13.00;;;8.40;1.00;;;;;;5032160;28;20542;-77
2023/12/16 11:47:21;;;;;;;13.77;12.80;;;8.40;1.00;;;;;;5027091;28;20457;-78
2023/12/16 11:49:49;;;;;;;13.30;12.60;;;8.40;1.00;;;;;;5031581;28;20901;-78
2023/12/16 11:52:20;;;;;;;13.93;13.23;;;8.50;1.00;;;;;;5027481;28;21061;-76
2023/12/16 11:54:53;;;;;;;13.50;12.80;;;8.50;1.00;;;;;;5026904;28;20470;-78
2023/12/16 11:57:24;;;;;;;13.07;12.37;;;8.60;1.00;;;;;;5029536;28;20453;-76
2023/12/16 11:59:54;;;;;;;13.60;12.73;;;8.60;1.00;;;;;;5031653;28;20472;-77
2023/12/16 12:02:23;;;;;;;13.13;12.57;;;8.70;1.00;;;;;;5022371;28;20655;-76
2023/12/16 12:04:51;;;;;;;13.43;12.73;;;8.80;1.00;;;;;;5024988;28;21118;-77
2023/12/16 12:07:20;;;;;;;13.27;12.70;;;8.90;1.00;;;;;;5030592;28;20448;-76
2023/12/16 12:09:48;;;;;;;14.60;13.80;;;8.90;1.00;;;;;;5031392;28;20462;-76
2023/12/16 12:12:16;;;;;;;15.53;14.63;;;9.00;1.00;;;;;;5031247;28;21124;-78
2023/12/16 12:14:46;;;;;;;14.70;13.73;;;9.00;1.00;;;;;;5015159;28;20452;-76
2023/12/16 12:17:15;;;;;;;14.90;14.10;;;9.00;1.00;;;;;;5030321;28;20978;-78
2023/12/16 12:19:44;;;;;;;14.17;13.43;;;9.10;1.00;;;;;;5026502;28;20595;-78
2023/12/16 12:22:12;;;;;;;15.00;14.20;;;9.10;1.00;;;;;;5026835;28;20487;-76
2023/12/16 12:24:41;;;;;;;14.90;14.20;;;9.20;1.00;;;;;;5030434;28;20465;-77
2023/12/16 12:27:09;;;;;;;14.60;13.93;;;9.20;1.00;;;;;;5029601;28;20461;-77
2023/12/16 12:29:55;;;;;;;14.60;13.90;;;9.30;1.00;;;;;;5029581;28;20452;-77
2023/12/16 12:32:24;;;;;;;14.80;14.10;;;9.30;1.00;;;;;;5027066;28;20471;-77
2023/12/16 12:34:59;;;;;;;14.30;13.80;;;9.40;1.00;;;;;;5024273;28;20456;-79
2023/12/16 12:37:36;;;;;;;15.37;14.67;;;9.40;1.00;;;;;;5024393;28;20445;-77
2023/12/16 12:40:15;;;;;;;14.50;13.90;;;9.50;1.00;;;;;;5033330;28;20557;-77
2023/12/16 12:42:49;;;;;;;14.67;14.10;;;9.50;1.00;;;;;;5027502;28;20483;-77
2023/12/16 12:45:30;;;;;;;14.37;13.67;;;9.60;1.00;;;;;;5030550;28;20555;-76
2023/12/16 12:48:10;;;;;;;8.20;7.60;;;9.50;1.00;;;;;;5029490;28;20457;-81
2023/12/16 12:50:39;;;;;;;7.97;7.40;;;9.60;1.00;;;;;;5033156;28;20946;-83
2023/12/16 12:53:17;;;;;;;7.80;7.20;;;9.70;1.00;;;;;;5034663;28;20476;-81